sensor_id;sensor_type;location;lat;lon;timestamp;pressure;altitude;pressure_sealevel;temperature;humidity
18500;BME280;9379;52.134;11.576;2022-10-19T00:00:20;102068.22;;;13.42;93.58
18500;BME280;9379;52.134;11.576;2022-10-19T00:02:48;102046.38;;;13.37;94.29
18500;BME280;9379;52.134;11.576;2022-10-19T00:05:16;102050.50;;;13.41;94.04
18500;BME280;9379;52.134;11.576;2022-10-19T00:07:43;102065.66;;;13.41;94.52
18500;BME280;9379;52.134;11.576;2022-10-19T00:10:10;102048.94;;;13.50;93.81
18500;BME280;9379;52.134;11.576;2022-10-19T00:12:39;102036.69;;;13.70;91.76
18500;BME280;9379;52.134;11.576;2022-10-19T00:15:06;102067.44;;;13.98;90.90
18500;BME280;9379;52.134;11.576;2022-10-19T00:17:33;102063.19;;;13.73;93.53
18500;BME280;9379;52.134;11.576;2022-10-19T00:20:02;102069.25;;;13.75;93.42
18500;BME280;9379;52.134;11.576;2022-10-19T00:22:29;102058.81;;;13.94;92.13
18500;BME280;9379;52.134;11.576;2022-10-19T00:24:56;102046.19;;;13.85;91.13
18500;BME280;9379;52.134;11.576;2022-10-19T00:27:23;102022.94;;;13.41;92.42
18500;BME280;9379;52.134;11.576;2022-10-19T00:29:50;102056.84;;;13.74;91.86
18500;BME280;9379;52.134;11.576;2022-10-19T00:32:16;102071.22;;;14.07;90.85
18500;BME280;9379;52.134;11.576;2022-10-19T00:34:43;102059.28;;;13.66;92.00
18500;BME280;9379;52.134;11.576;2022-10-19T00:37:11;102047.97;;;13.51;92.46
18500;BME280;9379;52.134;11.576;2022-10-19T00:39:38;102060.72;;;13.12;93.94
18500;BME280;9379;52.134;11.576;2022-10-19T00:42:05;102070.78;;;13.44;92.42
18500;BME280;9379;52.134;11.576;2022-10-19T00:45:00;102075.00;;;13.35;92.68
18500;BME280;9379;52.134;11.576;2022-10-19T00:47:31;102077.59;;;13.48;92.85
18500;BME280;9379;52.134;11.576;2022-10-19T00:49:58;102054.75;;;13.44;92.39
18500;BME280;9379;52.134;11.576;2022-10-19T00:52:27;102046.16;;;13.63;92.60
18500;BME280;9379;52.134;11.576;2022-10-19T00:54:57;102068.75;;;13.59;93.71
18500;BME280;9379;52.134;11.576;2022-10-19T00:57:26;102062.94;;;13.76;91.86
18500;BME280;9379;52.134;11.576;2022-10-19T00:59:58;102078.00;;;14.11;90.96
18500;BME280;9379;52.134;11.576;2022-10-19T01:02:26;102082.03;;;14.05;91.02
18500;BME280;9379;52.134;11.576;2022-10-19T01:04:53;102073.41;;;14.01;91.10
18500;BME280;9379;52.134;11.576;2022-10-19T01:07:27;102072.03;;;13.73;92.50
18500;BME280;9379;52.134;11.576;2022-10-19T01:09:54;102078.84;;;14.34;90.77
18500;BME280;9379;52.134;11.576;2022-10-19T01:12:37;102064.84;;;14.64;88.39
18500;BME280;9379;52.134;11.576;2022-10-19T01:15:19;102088.09;;;13.96;91.83
18500;BME280;9379;52.134;11.576;2022-10-19T01:17:53;102070.34;;;13.95;90.28
18500;BME280;9379;52.134;11.576;2022-10-19T01:20:36;102062.34;;;14.83;88.18
18500;BME280;9379;52.134;11.576;2022-10-19T01:23:32;102050.91;;;14.26;90.07
18500;BME280;9379;52.134;11.576;2022-10-19T01:26:15;102066.69;;;13.62;92.02
18500;BME280;9379;52.134;11.576;2022-10-19T01:28:58;102061.06;;;13.54;93.09
18500;BME280;9379;52.134;11.576;2022-10-19T01:31:37;102055.00;;;13.52;92.86
18500;BME280;9379;52.134;11.576;2022-10-19T01:34:12;102044.59;;;13.94;91.83
18500;BME280;9379;52.134;11.576;2022-10-19T01:36:49;102052.75;;;14.04;91.30
18500;BME280;9379;52.134;11.576;2022-10-19T01:39:25;102068.00;;;14.35;90.17
18500;BME280;9379;52.134;11.576;2022-10-19T01:42:00;102062.31;;;13.61;91.17
18500;BME280;9379;52.134;11.576;2022-10-19T01:44:34;102030.97;;;13.63;91.51
18500;BME280;9379;52.134;11.576;2022-10-19T01:47:09;102033.06;;;13.82;91.55
18500;BME280;9379;52.134;11.576;2022-10-19T01:49:44;102043.34;;;13.64;92.01
18500;BME280;9379;52.134;11.576;2022-10-19T01:52:15;102028.28;;;13.41;92.38
18500;BME280;9379;52.134;11.576;2022-10-19T01:54:46;102024.44;;;13.67;92.65
18500;BME280;9379;52.134;11.576;2022-10-19T01:57:17;102047.25;;;13.71;91.05
18500;BME280;9379;52.134;11.576;2022-10-19T01:59:45;102046.53;;;13.69;91.49
18500;BME280;9379;52.134;11.576;2022-10-19T02:02:17;102028.06;;;13.89;91.80
18500;BME280;9379;52.134;11.576;2022-10-19T02:04:47;102031.09;;;14.18;89.81
18500;BME280;9379;52.134;11.576;2022-10-19T02:07:15;102013.13;;;13.97;89.99
18500;BME280;9379;52.134;11.576;2022-10-19T02:09:47;102020.97;;;14.32;89.13
18500;BME280;9379;52.134;11.576;2022-10-19T02:12:15;102012.75;;;14.68;87.49
18500;BME280;9379;52.134;11.576;2022-10-19T02:14:43;102032.00;;;14.62;88.12
18500;BME280;9379;52.134;11.576;2022-10-19T02:17:14;102018.31;;;14.10;89.78
18500;BME280;9379;52.134;11.576;2022-10-19T02:19:42;102022.31;;;14.38;88.66
18500;BME280;9379;52.134;11.576;2022-10-19T02:22:11;102013.81;;;14.76;86.52
18500;BME280;9379;52.134;11.576;2022-10-19T02:24:38;102008.63;;;14.64;86.74
18500;BME280;9379;52.134;11.576;2022-10-19T02:27:07;102020.50;;;15.03;86.26
18500;BME280;9379;52.134;11.576;2022-10-19T02:29:38;102037.41;;;14.82;86.11
18500;BME280;9379;52.134;11.576;2022-10-19T02:32:06;102040.19;;;14.81;86.63
18500;BME280;9379;52.134;11.576;2022-10-19T02:34:36;102030.00;;;15.07;85.93
18500;BME280;9379;52.134;11.576;2022-10-19T02:37:03;102009.34;;;14.98;85.32
18500;BME280;9379;52.134;11.576;2022-10-19T02:39:30;102024.81;;;14.94;83.86
18500;BME280;9379;52.134;11.576;2022-10-19T02:42:02;102045.22;;;15.06;83.78
18500;BME280;9379;52.134;11.576;2022-10-19T02:44:35;102042.72;;;15.14;83.99
18500;BME280;9379;52.134;11.576;2022-10-19T02:47:08;102039.69;;;14.87;84.28
18500;BME280;9379;52.134;11.576;2022-10-19T02:49:39;102026.38;;;14.97;84.04
18500;BME280;9379;52.134;11.576;2022-10-19T02:52:08;102033.19;;;15.01;84.46
18500;BME280;9379;52.134;11.576;2022-10-19T02:54:36;102029.38;;;14.82;84.75
18500;BME280;9379;52.134;11.576;2022-10-19T02:57:03;102018.66;;;15.03;83.56
18500;BME280;9379;52.134;11.576;2022-10-19T02:59:38;102040.31;;;15.11;84.00
18500;BME280;9379;52.134;11.576;2022-10-19T03:02:05;102050.75;;;15.56;83.25
18500;BME280;9379;52.134;11.576;2022-10-19T03:04:32;102020.78;;;15.41;83.58
18500;BME280;9379;52.134;11.576;2022-10-19T03:07:00;102029.59;;;15.11;83.84
18500;BME280;9379;52.134;11.576;2022-10-19T03:09:27;102028.41;;;15.46;83.24
18500;BME280;9379;52.134;11.576;2022-10-19T03:11:54;102032.34;;;15.42;83.10
18500;BME280;9379;52.134;11.576;2022-10-19T03:14:21;102025.66;;;15.57;83.44
18500;BME280;9379;52.134;11.576;2022-10-19T03:16:48;102039.41;;;15.64;84.10
18500;BME280;9379;52.134;11.576;2022-10-19T03:19:16;102023.91;;;15.46;84.71
18500;BME280;9379;52.134;11.576;2022-10-19T03:21:43;102054.91;;;15.60;84.18
18500;BME280;9379;52.134;11.576;2022-10-19T03:24:12;102050.16;;;15.11;84.72
18500;BME280;9379;52.134;11.576;2022-10-19T03:26:41;102046.00;;;15.18;84.65
18500;BME280;9379;52.134;11.576;2022-10-19T03:29:08;102037.88;;;14.87;85.42
18500;BME280;9379;52.134;11.576;2022-10-19T03:31:35;102048.88;;;15.05;85.86
18500;BME280;9379;52.134;11.576;2022-10-19T03:34:03;102048.06;;;15.14;84.82
18500;BME280;9379;52.134;11.576;2022-10-19T03:36:31;102053.28;;;15.16;85.21
18500;BME280;9379;52.134;11.576;2022-10-19T03:39:00;102054.09;;;15.48;84.72
18500;BME280;9379;52.134;11.576;2022-10-19T03:41:30;102069.22;;;15.29;85.97
18500;BME280;9379;52.134;11.576;2022-10-19T03:43:57;102063.03;;;14.96;87.07
18500;BME280;9379;52.134;11.576;2022-10-19T03:46:24;102059.03;;;14.91;86.93
18500;BME280;9379;52.134;11.576;2022-10-19T03:48:52;102051.16;;;14.78;86.95
18500;BME280;9379;52.134;11.576;2022-10-19T03:51:24;102055.22;;;14.72;86.95
18500;BME280;9379;52.134;11.576;2022-10-19T03:53:51;102075.75;;;15.04;86.41
18500;BME280;9379;52.134;11.576;2022-10-19T03:56:20;102061.03;;;14.77;87.17
18500;BME280;9379;52.134;11.576;2022-10-19T03:58:49;102060.78;;;14.69;87.44
18500;BME280;9379;52.134;11.576;2022-10-19T04:01:18;102079.94;;;15.29;86.06
18500;BME280;9379;52.134;11.576;2022-10-19T04:03:46;102087.41;;;15.14;86.43
18500;BME280;9379;52.134;11.576;2022-10-19T04:06:14;102080.56;;;15.21;85.99
18500;BME280;9379;52.134;11.576;2022-10-19T04:08:43;102070.69;;;15.22;86.07
18500;BME280;9379;52.134;11.576;2022-10-19T04:11:12;102089.53;;;15.52;85.41
18500;BME280;9379;52.134;11.576;2022-10-19T04:13:39;102081.22;;;15.55;85.33
18500;BME280;9379;52.134;11.576;2022-10-19T04:16:09;102078.28;;;15.37;86.08
18500;BME280;9379;52.134;11.576;2022-10-19T04:18:38;102089.63;;;15.51;86.12
18500;BME280;9379;52.134;11.576;2022-10-19T04:21:05;102082.84;;;15.46;84.99
18500;BME280;9379;52.134;11.576;2022-10-19T04:23:34;102086.44;;;15.57;85.60
18500;BME280;9379;52.134;11.576;2022-10-19T04:26:06;102063.78;;;15.40;85.06
18500;BME280;9379;52.134;11.576;2022-10-19T04:28:33;102084.13;;;14.78;86.73
18500;BME280;9379;52.134;11.576;2022-10-19T04:31:01;102063.25;;;14.61;87.55
18500;BME280;9379;52.134;11.576;2022-10-19T04:33:29;102072.16;;;14.94;86.48
18500;BME280;9379;52.134;11.576;2022-10-19T04:35:57;102083.78;;;15.04;86.45
18500;BME280;9379;52.134;11.576;2022-10-19T04:38:28;102079.75;;;14.77;86.49
18500;BME280;9379;52.134;11.576;2022-10-19T04:40:59;102088.38;;;14.81;86.27
18500;BME280;9379;52.134;11.576;2022-10-19T04:43:26;102095.25;;;15.27;84.95
18500;BME280;9379;52.134;11.576;2022-10-19T04:45:53;102113.56;;;15.22;85.04
18500;BME280;9379;52.134;11.576;2022-10-19T04:48:21;102096.72;;;14.99;85.33
18500;BME280;9379;52.134;11.576;2022-10-19T04:54:06;102079.22;;;14.95;85.16
18500;BME280;9379;52.134;11.576;2022-10-19T04:56:33;102097.41;;;15.12;85.12
18500;BME280;9379;52.134;11.576;2022-10-19T04:59:00;102082.13;;;14.92;85.76
18500;BME280;9379;52.134;11.576;2022-10-19T05:01:28;102113.69;;;15.20;84.95
18500;BME280;9379;52.134;11.576;2022-10-19T05:03:57;102114.94;;;15.05;85.72
18500;BME280;9379;52.134;11.576;2022-10-19T05:06:25;102094.09;;;14.87;85.68
18500;BME280;9379;52.134;11.576;2022-10-19T05:08:52;102093.66;;;14.71;86.38
18500;BME280;9379;52.134;11.576;2022-10-19T05:11:21;102098.09;;;15.14;86.22
18500;BME280;9379;52.134;11.576;2022-10-19T05:13:48;102108.28;;;15.31;84.52
18500;BME280;9379;52.134;11.576;2022-10-19T05:16:17;102077.09;;;15.30;84.46
18500;BME280;9379;52.134;11.576;2022-10-19T05:18:46;102096.06;;;15.59;83.20
18500;BME280;9379;52.134;11.576;2022-10-19T05:21:16;102072.53;;;15.42;83.33
18500;BME280;9379;52.134;11.576;2022-10-19T05:23:43;102085.88;;;15.53;83.08
18500;BME280;9379;52.134;11.576;2022-10-19T05:26:11;102103.66;;;15.54;83.53
18500;BME280;9379;52.134;11.576;2022-10-19T05:28:41;102112.13;;;15.59;83.98
18500;BME280;9379;52.134;11.576;2022-10-19T05:31:11;102105.66;;;15.41;84.44
18500;BME280;9379;52.134;11.576;2022-10-19T05:33:39;102107.94;;;15.45;84.36
18500;BME280;9379;52.134;11.576;2022-10-19T05:36:16;102115.69;;;15.07;85.89
18500;BME280;9379;52.134;11.576;2022-10-19T05:38:44;102100.63;;;14.95;86.14
18500;BME280;9379;52.134;11.576;2022-10-19T05:41:12;102102.03;;;15.10;85.30
18500;BME280;9379;52.134;11.576;2022-10-19T05:43:41;102119.13;;;15.30;85.51
18500;BME280;9379;52.134;11.576;2022-10-19T05:46:10;102119.84;;;15.32;85.27
18500;BME280;9379;52.134;11.576;2022-10-19T05:48:37;102113.22;;;15.36;85.32
18500;BME280;9379;52.134;11.576;2022-10-19T05:51:06;102115.19;;;15.34;85.52
18500;BME280;9379;52.134;11.576;2022-10-19T05:53:34;102119.00;;;15.52;84.15
18500;BME280;9379;52.134;11.576;2022-10-19T05:56:02;102115.31;;;15.64;83.54
18500;BME280;9379;52.134;11.576;2022-10-19T05:58:29;102109.47;;;15.80;83.01
18500;BME280;9379;52.134;11.576;2022-10-19T06:00:59;102122.69;;;15.72;83.69
18500;BME280;9379;52.134;11.576;2022-10-19T06:03:26;102121.16;;;15.58;84.48
18500;BME280;9379;52.134;11.576;2022-10-19T06:05:54;102113.63;;;15.31;85.34
18500;BME280;9379;52.134;11.576;2022-10-19T06:08:22;102122.63;;;15.62;84.59
18500;BME280;9379;52.134;11.576;2022-10-19T06:10:49;102107.00;;;15.88;83.66
18500;BME280;9379;52.134;11.576;2022-10-19T06:13:17;102124.22;;;15.65;84.27
18500;BME280;9379;52.134;11.576;2022-10-19T06:15:49;102118.22;;;15.82;85.43
18500;BME280;9379;52.134;11.576;2022-10-19T06:18:17;102095.94;;;15.61;85.72
18500;BME280;9379;52.134;11.576;2022-10-19T06:20:44;102126.97;;;15.42;85.67
18500;BME280;9379;52.134;11.576;2022-10-19T06:23:11;102126.41;;;15.28;85.72
18500;BME280;9379;52.134;11.576;2022-10-19T06:25:39;102124.50;;;15.71;84.27
18500;BME280;9379;52.134;11.576;2022-10-19T06:28:06;102140.31;;;15.95;83.53
18500;BME280;9379;52.134;11.576;2022-10-19T06:30:33;102128.75;;;15.53;83.97
18500;BME280;9379;52.134;11.576;2022-10-19T06:33:00;102143.81;;;15.65;82.33
18500;BME280;9379;52.134;11.576;2022-10-19T06:35:28;102145.69;;;15.95;82.69
18500;BME280;9379;52.134;11.576;2022-10-19T06:37:55;102141.84;;;15.88;82.00
18500;BME280;9379;52.134;11.576;2022-10-19T06:40:22;102132.91;;;15.78;83.63
18500;BME280;9379;52.134;11.576;2022-10-19T06:42:49;102144.44;;;15.58;81.91
18500;BME280;9379;52.134;11.576;2022-10-19T06:45:16;102155.25;;;15.88;82.68
18500;BME280;9379;52.134;11.576;2022-10-19T06:47:43;102157.34;;;15.64;81.69
18500;BME280;9379;52.134;11.576;2022-10-19T06:50:10;102151.19;;;15.20;82.97
18500;BME280;9379;52.134;11.576;2022-10-19T06:52:39;102162.34;;;15.57;82.14
18500;BME280;9379;52.134;11.576;2022-10-19T06:55:07;102141.34;;;15.09;81.44
18500;BME280;9379;52.134;11.576;2022-10-19T06:57:34;102159.28;;;15.62;81.86
18500;BME280;9379;52.134;11.576;2022-10-19T07:00:02;102147.00;;;15.27;81.54
18500;BME280;9379;52.134;11.576;2022-10-19T07:02:29;102134.81;;;15.34;80.36
18500;BME280;9379;52.134;11.576;2022-10-19T07:04:56;102155.13;;;15.69;81.16
18500;BME280;9379;52.134;11.576;2022-10-19T07:07:23;102168.00;;;15.11;79.24
18500;BME280;9379;52.134;11.576;2022-10-19T07:09:51;102146.09;;;15.38;78.81
18500;BME280;9379;52.134;11.576;2022-10-19T07:12:18;102145.63;;;15.86;78.09
18500;BME280;9379;52.134;11.576;2022-10-19T07:14:45;102159.00;;;16.07;78.69
18500;BME280;9379;52.134;11.576;2022-10-19T07:17:13;102155.38;;;15.87;78.21
18500;BME280;9379;52.134;11.576;2022-10-19T07:19:40;102147.94;;;15.69;78.86
18500;BME280;9379;52.134;11.576;2022-10-19T07:22:06;102159.69;;;15.99;77.97
18500;BME280;9379;52.134;11.576;2022-10-19T07:24:33;102168.44;;;16.01;77.84
18500;BME280;9379;52.134;11.576;2022-10-19T07:27:02;102160.13;;;15.62;80.33
18500;BME280;9379;52.134;11.576;2022-10-19T07:29:29;102180.31;;;15.78;79.19
18500;BME280;9379;52.134;11.576;2022-10-19T07:31:56;102172.00;;;15.81;80.65
18500;BME280;9379;52.134;11.576;2022-10-19T07:34:23;102175.38;;;15.83;77.26
18500;BME280;9379;52.134;11.576;2022-10-19T07:36:49;102184.25;;;15.62;77.13
18500;BME280;9379;52.134;11.576;2022-10-19T07:39:17;102182.19;;;15.87;75.83
18500;BME280;9379;52.134;11.576;2022-10-19T07:41:44;102177.41;;;16.11;75.53
18500;BME280;9379;52.134;11.576;2022-10-19T07:44:13;102178.78;;;16.05;75.93
18500;BME280;9379;52.134;11.576;2022-10-19T07:46:40;102161.47;;;15.89;74.72
18500;BME280;9379;52.134;11.576;2022-10-19T07:49:09;102178.84;;;16.15;76.63
18500;BME280;9379;52.134;11.576;2022-10-19T07:51:38;102181.44;;;16.05;76.94
18500;BME280;9379;52.134;11.576;2022-10-19T07:54:05;102188.06;;;15.81;75.12
18500;BME280;9379;52.134;11.576;2022-10-19T07:56:35;102168.97;;;15.74;77.45
18500;BME280;9379;52.134;11.576;2022-10-19T07:59:03;102199.59;;;16.13;75.16
18500;BME280;9379;52.134;11.576;2022-10-19T08:01:33;102186.38;;;16.00;74.97
18500;BME280;9379;52.134;11.576;2022-10-19T08:04:02;102189.19;;;16.29;74.97
18500;BME280;9379;52.134;11.576;2022-10-19T08:06:36;102182.31;;;16.37;75.80
18500;BME280;9379;52.134;11.576;2022-10-19T08:09:04;102184.97;;;16.57;74.93
18500;BME280;9379;52.134;11.576;2022-10-19T08:11:32;102189.78;;;16.63;74.65
18500;BME280;9379;52.134;11.576;2022-10-19T08:14:00;102177.28;;;16.53;74.85
18500;BME280;9379;52.134;11.576;2022-10-19T08:16:29;102196.88;;;16.44;75.46
18500;BME280;9379;52.134;11.576;2022-10-19T08:18:59;102204.66;;;16.37;74.53
18500;BME280;9379;52.134;11.576;2022-10-19T08:21:27;102192.41;;;16.54;74.62
18500;BME280;9379;52.134;11.576;2022-10-19T08:23:57;102178.69;;;16.17;76.94
18500;BME280;9379;52.134;11.576;2022-10-19T08:26:24;102202.41;;;16.42;75.46
18500;BME280;9379;52.134;11.576;2022-10-19T08:28:51;102216.78;;;16.11;73.41
18500;BME280;9379;52.134;11.576;2022-10-19T08:31:19;102214.41;;;16.38;73.71
18500;BME280;9379;52.134;11.576;2022-10-19T08:33:48;102210.81;;;16.07;73.97
18500;BME280;9379;52.134;11.576;2022-10-19T08:36:17;102207.69;;;16.23;75.04
18500;BME280;9379;52.134;11.576;2022-10-19T08:38:45;102193.81;;;16.18;74.71
18500;BME280;9379;52.134;11.576;2022-10-19T08:41:27;102195.09;;;16.54;72.50
18500;BME280;9379;52.134;11.576;2022-10-19T08:44:26;102207.22;;;16.18;75.81
18500;BME280;9379;52.134;11.576;2022-10-19T08:47:00;102201.34;;;16.24;75.75
18500;BME280;9379;52.134;11.576;2022-10-19T08:49:31;102201.72;;;16.19;73.02
18500;BME280;9379;52.134;11.576;2022-10-19T08:52:01;102205.53;;;16.17;74.11
18500;BME280;9379;52.134;11.576;2022-10-19T08:54:36;102214.22;;;16.60;72.69
18500;BME280;9379;52.134;11.576;2022-10-19T08:57:11;102205.13;;;16.52;73.73
18500;BME280;9379;52.134;11.576;2022-10-19T08:59:44;102206.91;;;16.42;72.99
18500;BME280;9379;52.134;11.576;2022-10-19T09:02:17;102219.41;;;16.83;72.32
18500;BME280;9379;52.134;11.576;2022-10-19T09:04:49;102217.44;;;16.24;73.47
18500;BME280;9379;52.134;11.576;2022-10-19T09:07:25;102226.53;;;16.12;73.92
18500;BME280;9379;52.134;11.576;2022-10-19T09:09:58;102222.97;;;15.69;74.17
18500;BME280;9379;52.134;11.576;2022-10-19T09:12:39;102200.56;;;15.91;73.49
18500;BME280;9379;52.134;11.576;2022-10-19T09:15:10;102216.78;;;15.90;72.76
18500;BME280;9379;52.134;11.576;2022-10-19T09:17:38;102222.75;;;16.14;73.32
18500;BME280;9379;52.134;11.576;2022-10-19T09:20:17;102196.66;;;16.47;74.04
18500;BME280;9379;52.134;11.576;2022-10-19T09:22:50;102218.16;;;16.56;72.11
18500;BME280;9379;52.134;11.576;2022-10-19T09:25:20;102208.53;;;16.54;73.19
18500;BME280;9379;52.134;11.576;2022-10-19T09:27:56;102212.88;;;16.45;69.83
18500;BME280;9379;52.134;11.576;2022-10-19T09:30:26;102232.97;;;16.30;71.56
18500;BME280;9379;52.134;11.576;2022-10-19T09:32:58;102223.81;;;16.63;70.86
18500;BME280;9379;52.134;11.576;2022-10-19T09:35:28;102203.69;;;16.17;71.96
18500;BME280;9379;52.134;11.576;2022-10-19T09:37:57;102204.19;;;16.32;71.86
18500;BME280;9379;52.134;11.576;2022-10-19T09:40:26;102226.06;;;16.27;72.48
18500;BME280;9379;52.134;11.576;2022-10-19T09:42:55;102221.47;;;16.18;71.80
18500;BME280;9379;52.134;11.576;2022-10-19T09:45:37;102221.94;;;16.44;72.61
18500;BME280;9379;52.134;11.576;2022-10-19T09:48:13;102208.22;;;16.68;73.06
18500;BME280;9379;52.134;11.576;2022-10-19T09:50:42;102210.66;;;16.81;70.75
18500;BME280;9379;52.134;11.576;2022-10-19T09:53:17;102220.00;;;16.56;70.11
18500;BME280;9379;52.134;11.576;2022-10-19T09:55:56;102221.28;;;17.02;69.12
18500;BME280;9379;52.134;11.576;2022-10-19T09:58:25;102209.66;;;16.82;68.56
18500;BME280;9379;52.134;11.576;2022-10-19T10:00:53;102216.28;;;16.78;69.93
18500;BME280;9379;52.134;11.576;2022-10-19T10:03:23;102225.84;;;16.40;70.88
18500;BME280;9379;52.134;11.576;2022-10-19T10:05:51;102205.44;;;16.28;71.26
18500;BME280;9379;52.134;11.576;2022-10-19T10:08:20;102220.78;;;16.77;71.75
18500;BME280;9379;52.134;11.576;2022-10-19T10:10:55;102205.03;;;16.63;74.03
18500;BME280;9379;52.134;11.576;2022-10-19T10:13:25;102212.75;;;16.77;70.12
18500;BME280;9379;52.134;11.576;2022-10-19T10:15:55;102202.34;;;16.94;67.94
18500;BME280;9379;52.134;11.576;2022-10-19T10:18:24;102209.06;;;16.78;71.55
18500;BME280;9379;52.134;11.576;2022-10-19T10:20:59;102203.75;;;16.98;71.82
18500;BME280;9379;52.134;11.576;2022-10-19T10:23:29;102219.84;;;16.27;72.67
18500;BME280;9379;52.134;11.576;2022-10-19T10:25:59;102199.75;;;16.73;70.87
18500;BME280;9379;52.134;11.576;2022-10-19T10:28:27;102198.47;;;16.77;69.63
18500;BME280;9379;52.134;11.576;2022-10-19T10:30:59;102196.97;;;16.94;68.81
18500;BME280;9379;52.134;11.576;2022-10-19T10:33:29;102208.53;;;16.84;68.17
18500;BME280;9379;52.134;11.576;2022-10-19T10:36:01;102223.28;;;16.39;72.92
18500;BME280;9379;52.134;11.576;2022-10-19T10:38:32;102224.19;;;16.49;72.52
18500;BME280;9379;52.134;11.576;2022-10-19T10:41:03;102214.00;;;16.73;72.49
18500;BME280;9379;52.134;11.576;2022-10-19T10:43:35;102200.09;;;16.58;68.85
18500;BME280;9379;52.134;11.576;2022-10-19T10:46:06;102201.38;;;16.64;70.29
18500;BME280;9379;52.134;11.576;2022-10-19T10:48:39;102199.72;;;17.52;69.45
18500;BME280;9379;52.134;11.576;2022-10-19T10:51:19;102208.50;;;17.54;68.25
18500;BME280;9379;52.134;11.576;2022-10-19T10:54:07;102183.72;;;17.31;66.66
18500;BME280;9379;52.134;11.576;2022-10-19T10:56:44;102196.34;;;17.49;66.70
18500;BME280;9379;52.134;11.576;2022-10-19T10:59:25;102195.06;;;17.83;67.21
18500;BME280;9379;52.134;11.576;2022-10-19T11:01:58;102201.44;;;17.82;66.11
18500;BME280;9379;52.134;11.576;2022-10-19T11:04:29;102193.94;;;17.27;67.21
18500;BME280;9379;52.134;11.576;2022-10-19T11:07:00;102194.78;;;17.37;66.48
18500;BME280;9379;52.134;11.576;2022-10-19T11:09:35;102204.59;;;16.98;66.50
18500;BME280;9379;52.134;11.576;2022-10-19T11:12:07;102193.50;;;15.90;68.68
18500;BME280;9379;52.134;11.576;2022-10-19T11:14:40;102182.06;;;16.40;69.29
18500;BME280;9379;52.134;11.576;2022-10-19T11:17:20;102190.09;;;17.20;67.37
18500;BME280;9379;52.134;11.576;2022-10-19T11:19:50;102183.69;;;17.11;65.42
18500;BME280;9379;52.134;11.576;2022-10-19T11:22:21;102206.59;;;16.96;68.32
18500;BME280;9379;52.134;11.576;2022-10-19T11:25:08;102187.47;;;16.49;67.39
18500;BME280;9379;52.134;11.576;2022-10-19T11:27:50;102178.19;;;15.81;70.42
18500;BME280;9379;52.134;11.576;2022-10-19T11:30:21;102199.78;;;16.21;70.16
18500;BME280;9379;52.134;11.576;2022-10-19T11:32:57;102181.00;;;16.31;70.43
18500;BME280;9379;52.134;11.576;2022-10-19T11:38:30;102192.31;;;16.65;70.12
18500;BME280;9379;52.134;11.576;2022-10-19T11:41:10;102195.53;;;16.89;70.25
18500;BME280;9379;52.134;11.576;2022-10-19T11:43:53;102178.56;;;16.89;67.03
18500;BME280;9379;52.134;11.576;2022-10-19T11:46:30;102185.16;;;17.25;67.56
18500;BME280;9379;52.134;11.576;2022-10-19T11:49:11;102173.38;;;16.97;65.44
18500;BME280;9379;52.134;11.576;2022-10-19T11:51:45;102194.78;;;17.28;67.40
18500;BME280;9379;52.134;11.576;2022-10-19T11:54:27;102189.06;;;17.11;65.94
18500;BME280;9379;52.134;11.576;2022-10-19T11:57:03;102181.41;;;16.97;68.55
18500;BME280;9379;52.134;11.576;2022-10-19T11:59:45;102173.19;;;16.79;70.01
18500;BME280;9379;52.134;11.576;2022-10-19T12:02:31;102151.28;;;16.84;69.67
18500;BME280;9379;52.134;11.576;2022-10-19T12:05:05;102151.59;;;17.00;68.00
18500;BME280;9379;52.134;11.576;2022-10-19T12:07:50;102156.28;;;17.17;67.56
18500;BME280;9379;52.134;11.576;2022-10-19T12:10:27;102140.19;;;17.27;67.60
18500;BME280;9379;52.134;11.576;2022-10-19T12:13:01;102153.19;;;17.32;66.79
18500;BME280;9379;52.134;11.576;2022-10-19T12:15:31;102149.78;;;17.20;66.17
18500;BME280;9379;52.134;11.576;2022-10-19T12:18:03;102156.00;;;17.30;67.02
18500;BME280;9379;52.134;11.576;2022-10-19T12:20:43;102155.28;;;17.47;66.49
18500;BME280;9379;52.134;11.576;2022-10-19T12:23:25;102149.50;;;17.13;67.28
18500;BME280;9379;52.134;11.576;2022-10-19T12:25:57;102150.94;;;17.27;68.74
18500;BME280;9379;52.134;11.576;2022-10-19T12:28:31;102116.53;;;17.31;67.06
18500;BME280;9379;52.134;11.576;2022-10-19T12:31:00;102139.16;;;17.57;66.37
18500;BME280;9379;52.134;11.576;2022-10-19T12:33:31;102142.56;;;17.40;66.67
18500;BME280;9379;52.134;11.576;2022-10-19T12:36:14;102135.91;;;17.54;66.21
18500;BME280;9379;52.134;11.576;2022-10-19T12:38:48;102112.00;;;17.41;69.27
18500;BME280;9379;52.134;11.576;2022-10-19T12:41:24;102102.97;;;17.32;67.31
18500;BME280;9379;52.134;11.576;2022-10-19T12:44:04;102121.91;;;17.50;66.66
18500;BME280;9379;52.134;11.576;2022-10-19T12:46:37;102115.53;;;17.70;66.09
18500;BME280;9379;52.134;11.576;2022-10-19T12:49:45;102119.81;;;17.15;66.82
18500;BME280;9379;52.134;11.576;2022-10-19T12:52:14;102105.94;;;17.29;66.36
18500;BME280;9379;52.134;11.576;2022-10-19T12:54:42;102076.22;;;17.11;66.46
18500;BME280;9379;52.134;11.576;2022-10-19T12:57:22;102094.91;;;16.84;68.16
18500;BME280;9379;52.134;11.576;2022-10-19T13:00:03;102099.69;;;16.71;68.94
18500;BME280;9379;52.134;11.576;2022-10-19T13:02:34;102083.31;;;16.83;68.19
18500;BME280;9379;52.134;11.576;2022-10-19T13:05:03;102076.38;;;16.71;69.42
18500;BME280;9379;52.134;11.576;2022-10-19T13:07:33;102079.06;;;16.71;70.94
18500;BME280;9379;52.134;11.576;2022-10-19T13:10:02;102071.72;;;16.83;70.53
18500;BME280;9379;52.134;11.576;2022-10-19T13:12:42;102070.75;;;16.94;70.14
18500;BME280;9379;52.134;11.576;2022-10-19T13:31:28;102077.25;;;16.41;69.49